ESNS

Skellefteå Airport

Skellefteå, Sweden
METAR ESNS 241120Z 29017KT CAVOK 09/M02 Q1002
Observed Flight Rules
Sep-24 @ 11:20 UTC (11 minutes ago) Visual Flight Rules
Wind Visibility Clouds
290° at 17 knots 10,000+ meters
  • Clear skies
Temperatures Readings
Current 9°C / 48°F
Dewpoint -2°C / 28°F
Humidity 46%
Altimeter 29.59" Hg
Pressure 1002 hPa
Elevation 49
METAR ESNS 241120Z 29017KT CAVOK 09/M02 Q1002
Observed Flight Rules
Sep-24 @ 11:20 UTC
(11 minutes ago)
VFR
Wind Visibility
290° at 17 knots 10,000+ meters
Clouds
  • Clear skies
Temperature Dewpoint
9°C / 48°F -2°C / 28°F
Humidity Altimeter Pressure
46% 29.59" Hg 1002 hPa